Nearby METAR Reports

 

KSEE - San Diego/Santee, California, USA
Distance from station: E 4mi, 6km
Updated: 10/17/2017 12:35am

 Wind from calm
Wind: Calm
Temperature: 64°F , 18°C
Dew Point: 36°F , 2°C
Humidity: 34%
Barometer: 30.01 inHg , 1016.3 hPa
Visibility: 10 miles , 16 km
2017/10/17 07:35 KSEE 170735Z AUTO 00000KT 10SM 18/02 A3001 RMK AO2
KMYF - San Diego/Mntgmy, California, USA
Distance from station: W 6mi, 10km
Updated: 10/16/2017 11:53pm
Clear
Clear
 Wind from calm
Wind: Calm
Temperature: 73°F , 23°C
Dew Point: 36°F , 2°C
Humidity: 25%
Barometer: 30.02 inHg , 1016.6 hPa
Clouds: Clear
Visibility: 10 miles , 16 km
2017/10/17 06:53 KMYF 170653Z AUTO 00000KT 10SM CLR 23/02 A3002 RMK AO2 SLP158 T02280017 $
 
KNKX - Miramar Nas/San, California, USA
Distance from station: WNW 7mi, 11km
Updated: 10/16/2017 11:55pm
Clear
Clear
 Wind from ESE
Wind: ESE 5 mph , 7 km/h
Temperature: 73°F , 23°C
Dew Point: 32°F , 0°C
Humidity: 22%
Barometer: 30.01 inHg , 1016.3 hPa
Clouds: Clear
Visibility: 10 miles , 16 km
2017/10/17 06:55 KNKX 170655Z 11004KT 10SM CLR 23/00 A3001 RMK AO2 SLP155 T02280000
KSAN - San Diego, California, USA
Distance from station: WSW 11mi, 17km
Updated: 10/16/2017 11:51pm
Few Clouds
Few Clouds
 Wind from calm
Wind: Calm
Temperature: 73°F , 23°C
Dew Point: 43°F , 6°C
Humidity: 33%
Barometer: 30.02 inHg , 1016.6 hPa
Clouds: Few Clouds
Visibility: 10 miles , 16 km
Cloud details: Few Clouds 25000 ft
2017/10/17 06:51 KSAN 170651Z 00000KT 10SM FEW250 23/06 A3002 RMK AO2 SLP165 T02280056
 
KNZY - North Island Nas, California, USA
Distance from station: SW 13mi, 22km
Updated: 10/16/2017 11:52pm
Few Clouds
Few Clouds
 Wind from calm
Wind: Calm
Temperature: 72°F , 22°C
Dew Point: 48°F , 9°C
Humidity: 44%
Barometer: 30.00 inHg , 1015.9 hPa
Clouds: Few Clouds
Visibility: 10 miles , 16 km
Cloud details: Few Clouds 25000 ft
2017/10/17 06:52 KNZY 170652Z 00000KT 10SM FEW250 22/09 A3000 RMK AO2 SLP157 T02170089 $
KRNM - Ramona, California, USA
Distance from station: NNE 16mi, 26km
Updated: 10/16/2017 11:53pm
Clear
Clear
 Wind from calm
Wind: Calm
Temperature: 59°F , 15°C
Dew Point: 30°F , -1°C
Humidity: 34%
Barometer: 30.07 inHg , 1018.3 hPa
Clouds: Clear
Visibility: 10 miles , 16 km
2017/10/17 06:53 KRNM 170653Z AUTO 00000KT 10SM CLR 15/M01 A3007 RMK AO2 SLP164 T01501011
 
KSDM - San Diego/Brown, California, USA
Distance from station: S 16mi, 26km
Updated: 10/16/2017 11:53pm
Clear
Clear
 Wind from ESE
Wind: ESE 6 mph , 9 km/h
Temperature: 68°F , 20°C
Dew Point: 43°F , 6°C
Humidity: 40%
Barometer: 30.01 inHg , 1016.3 hPa
Clouds: Clear
Visibility: 8 miles , 13 km
2017/10/17 06:53 KSDM 170653Z AUTO 12005KT 8SM CLR 20/06 A3001 RMK AO2 SLP157 T02000061
KNRS - Imperial Beach, California, USA
Distance from station: SSW 18mi, 29km
Updated: 10/16/2017 11:56pm
Clear
Clear
 Wind from NE
Wind: NE 6 mph , 9 km/h
Temperature: 70°F , 21°C
Dew Point: 45°F , 7°C
Humidity: 40%
Barometer: 30.01 inHg , 1016.3 hPa
Clouds: Clear
Visibility: 10 miles , 16 km
2017/10/17 06:56 KNRS 170656Z AUTO 05005KT 10SM CLR 21/07 A3001 RMK AO2 SLP160 T02110067 $
 
MMTJ - Tijuana Intl Arp, Mexico
Distance from station: S 20mi, 32km
Updated: 10/16/2017 11:44pm
Clear
Clear
 Wind from calm
Wind: Calm
Temperature: 72°F , 22°C
Dew Point: 41°F , 5°C
Humidity: 33%
Barometer: 30.04 inHg , 1017.3 hPa
Clouds: Clear
Visibility: 10 miles , 16 km
2017/10/17 06:44 MMTJ 170644Z 00000KT 10SM SKC 22/05 A3004
KCRQ - Carlsbad, California, USA
Distance from station: NW 26mi, 43km
Updated: 10/16/2017 11:53pm
Clear
Clear
 Wind from calm
Wind: Calm
Temperature: 72°F , 22°C
Dew Point: 45°F , 7°C
Humidity: 38%
Barometer: 30.00 inHg , 1015.9 hPa
Clouds: Clear
Visibility: 10 miles , 16 km
2017/10/17 06:53 KCRQ 170653Z AUTO 00000KT 10SM CLR 22/07 A3000 RMK AO2 SLP156 T02170067
 
KOKB - Oceanside, California, USA
Distance from station: NW 33mi, 54km
Updated: 10/16/2017 11:52pm
Clear
Clear
 Wind from calm
Wind: Calm
Temperature: 61°F , 16°C
Dew Point: 46°F , 8°C
Humidity: 59%
Barometer: 30.00 inHg , 1015.9 hPa
Clouds: Clear
Visibility: 10 miles , 16 km
2017/10/17 06:52 KOKB 170652Z AUTO 00000KT 10SM CLR 16/08 A3000 RMK AO2 SLP157 T01560078
KCZZ - Campo, California, USA
Distance from station: ESE 35mi, 56km
Updated: 10/16/2017 11:52pm

 Wind from ENE
Wind: ENE 8 mph , 13 km/h
Temperature: 54°F , 12°C
Dew Point: 19°F , -7°C
Humidity: 26%
Barometer: 30.11 inHg , 1019.6 hPa
2017/10/17 06:52 KCZZ 170652Z AUTO 06007KT 12/M07 A3011 RMK AO1 SLP165 T01221067
 
KNFG - Camp Pendleton, California, USA
Distance from station: NNW 37mi, 59km
Updated: 10/16/2017 11:55pm
Clear
Clear
 Wind from NE
Wind: NE 3 mph , 6 km/h
Temperature: 59°F , 15°C
Dew Point: 39°F , 4°C
Humidity: 48%
Barometer: 30.00 inHg , 1015.9 hPa
Clouds: Clear
Visibility: 7 miles , 11 km
2017/10/17 06:55 KNFG 170655Z 04003KT 7SM CLR 15/04 A3000 RMK AO2 SLP159 FU FEW030 T01500044
KRIV - Riverside/March, California, USA
Distance from station: N 74mi, 119km
Updated: 10/16/2017 11:58pm
Clear
Clear
 Wind from calm
Wind: Calm
Temperature: 61°F , 16°C
Dew Point: 28°F , -2°C
Humidity: 29%
Barometer: 30.07 inHg , 1018.3 hPa
Clouds: Clear
Visibility: 10 miles , 16 km
2017/10/17 06:58 KRIV 170658Z AUTO 00000KT 10SM CLR 16/M02 A3007 RMK AO2 SLP170 T01561020
 
KTRM - Thermal/Palm Spg, California, USA
Distance from station: NE 75mi, 121km
Updated: 10/16/2017 11:52pm
Clear
Clear
 Wind from NW
Wind: NW 3 mph , 6 km/h
Temperature: 63°F , 17°C
Dew Point: 39°F , 4°C
Humidity: 42%
Barometer: 29.97 inHg , 1014.9 hPa
Clouds: Clear
Visibility: 10 miles , 16 km
2017/10/17 06:52 KTRM 170652Z AUTO 32003KT 10SM CLR 17/04 A2997 RMK AO2 SLP159 T01670039
KPSP - Palm Springs, California, USA
Distance from station: NNE 76mi, 122km
Updated: 10/16/2017 11:53pm
Clear
Clear
 Wind from NW
Wind: NW 6 mph , 9 km/h
Temperature: 81°F , 27°C
Dew Point: 19°F , -7°C
Humidity: 10%
Barometer: 30.03 inHg , 1016.9 hPa
Clouds: Clear
Visibility: 10 miles , 16 km
2017/10/17 06:53 KPSP 170653Z 31005KT 10SM CLR 27/M07 A3003 RMK AO2 SLP165 T02671072
 
KSNA - Costa Mesa, California, USA
Distance from station: NW 76mi, 123km
Updated: 10/16/2017 11:53pm
Clear
Clear
 Wind from calm
Wind: Calm
Temperature: 72°F , 22°C
Dew Point: 54°F , 12°C
Humidity: 53%
Barometer: 30.00 inHg , 1015.9 hPa
Clouds: Clear
Visibility: 10 miles , 16 km
2017/10/17 06:53 KSNA 170653Z 00000KT 10SM CLR 22/12 A3000 RMK AO2 SLP157 T02170117 $
KNJK - El Centro Naf, California, USA
Distance from station: E 79mi, 127km
Updated: 10/16/2017 11:56pm
Clear
Clear
 Wind from W
Wind: W 8 mph , 13 km/h
Temperature: 70°F , 21°C
Dew Point: 18°F , -8°C
Humidity: 13%
Barometer: 29.98 inHg , 1015.2 hPa
Clouds: Clear
Visibility: 10 miles , 16 km
2017/10/17 06:56 KNJK 170656Z AUTO 27007KT 10SM CLR 21/M08 A2998 RMK AO2 SLP168 T02111083
 
KAJO - Corona Muni, California, USA
Distance from station: NNW 82mi, 132km
Updated: 10/16/2017 11:56pm
Clear
Clear
 Wind from calm
Wind: Calm
Temperature: 59°F , 15°C
Dew Point: 39°F , 4°C
Humidity: 48%
Barometer: 30.03 inHg , 1016.9 hPa
Clouds: Clear
Visibility: 10 miles , 16 km
2017/10/17 06:56 KAJO 170656Z AUTO 00000KT 10SM CLR 15/04 A3003 RMK AO2 SLP173 T01500044